sensor_id;sensor_type;location;lat;lon;timestamp;temperature;humidity
3626;DHT22;1827;50.534;8.316;2024-02-21T00:01:26;7.50;99.90
3626;DHT22;1827;50.534;8.316;2024-02-21T00:03:51;7.60;99.90
3626;DHT22;1827;50.534;8.316;2024-02-21T00:06:17;7.50;99.90
3626;DHT22;1827;50.534;8.316;2024-02-21T00:08:43;7.40;99.90
3626;DHT22;1827;50.534;8.316;2024-02-21T00:11:08;7.40;99.90
3626;DHT22;1827;50.534;8.316;2024-02-21T00:13:34;7.40;99.90
3626;DHT22;1827;50.534;8.316;2024-02-21T00:16:01;7.30;99.90
3626;DHT22;1827;50.534;8.316;2024-02-21T00:18:27;7.40;99.90
3626;DHT22;1827;50.534;8.316;2024-02-21T00:20:53;7.30;99.90
3626;DHT22;1827;50.534;8.316;2024-02-21T00:23:18;7.40;99.90
3626;DHT22;1827;50.534;8.316;2024-02-21T00:25:44;7.30;99.90
3626;DHT22;1827;50.534;8.316;2024-02-21T00:28:10;7.40;99.90
3626;DHT22;1827;50.534;8.316;2024-02-21T00:30:35;7.40;99.90
3626;DHT22;1827;50.534;8.316;2024-02-21T00:33:03;7.40;99.90
3626;DHT22;1827;50.534;8.316;2024-02-21T00:35:29;7.40;99.90
3626;DHT22;1827;50.534;8.316;2024-02-21T00:37:54;7.40;99.90
3626;DHT22;1827;50.534;8.316;2024-02-21T00:40:22;7.40;99.90
3626;DHT22;1827;50.534;8.316;2024-02-21T00:42:48;7.40;99.90
3626;DHT22;1827;50.534;8.316;2024-02-21T00:45:14;7.40;99.90
3626;DHT22;1827;50.534;8.316;2024-02-21T00:47:40;7.40;99.90
3626;DHT22;1827;50.534;8.316;2024-02-21T00:50:06;7.40;99.90
3626;DHT22;1827;50.534;8.316;2024-02-21T00:52:33;7.50;99.90
3626;DHT22;1827;50.534;8.316;2024-02-21T00:54:59;7.40;99.90
3626;DHT22;1827;50.534;8.316;2024-02-21T00:57:25;7.30;99.90
3626;DHT22;1827;50.534;8.316;2024-02-21T00:59:51;7.30;99.90
3626;DHT22;1827;50.534;8.316;2024-02-21T01:02:17;7.30;99.90
3626;DHT22;1827;50.534;8.316;2024-02-21T01:04:43;7.30;99.90
3626;DHT22;1827;50.534;8.316;2024-02-21T01:07:08;7.30;99.90
3626;DHT22;1827;50.534;8.316;2024-02-21T01:09:34;7.40;1.00
3626;DHT22;1827;50.534;8.316;2024-02-21T01:12:00;7.40;99.90
3626;DHT22;1827;50.534;8.316;2024-02-21T01:14:25;7.30;99.90
3626;DHT22;1827;50.534;8.316;2024-02-21T01:16:51;7.30;99.90
3626;DHT22;1827;50.534;8.316;2024-02-21T01:19:17;7.30;1.00
3626;DHT22;1827;50.534;8.316;2024-02-21T01:21:42;7.40;99.90
3626;DHT22;1827;50.534;8.316;2024-02-21T01:24:09;7.40;99.90
3626;DHT22;1827;50.534;8.316;2024-02-21T01:26:35;7.30;99.90
3626;DHT22;1827;50.534;8.316;2024-02-21T01:29:00;7.30;99.90
3626;DHT22;1827;50.534;8.316;2024-02-21T01:31:26;7.30;99.90
3626;DHT22;1827;50.534;8.316;2024-02-21T01:33:52;7.40;99.90
3626;DHT22;1827;50.534;8.316;2024-02-21T01:36:17;7.40;99.90
3626;DHT22;1827;50.534;8.316;2024-02-21T01:38:43;7.40;99.90
3626;DHT22;1827;50.534;8.316;2024-02-21T01:41:09;7.40;99.90
3626;DHT22;1827;50.534;8.316;2024-02-21T01:43:35;7.40;99.90
3626;DHT22;1827;50.534;8.316;2024-02-21T01:46:01;7.40;99.90
3626;DHT22;1827;50.534;8.316;2024-02-21T01:48:26;7.40;99.90
3626;DHT22;1827;50.534;8.316;2024-02-21T01:50:54;7.40;99.90
3626;DHT22;1827;50.534;8.316;2024-02-21T01:53:21;7.40;99.90
3626;DHT22;1827;50.534;8.316;2024-02-21T01:55:48;7.40;99.90
3626;DHT22;1827;50.534;8.316;2024-02-21T01:58:14;7.30;99.90
3626;DHT22;1827;50.534;8.316;2024-02-21T02:00:44;7.30;99.90
3626;DHT22;1827;50.534;8.316;2024-02-21T02:03:11;7.40;99.90
3626;DHT22;1827;50.534;8.316;2024-02-21T02:05:44;7.40;99.90
3626;DHT22;1827;50.534;8.316;2024-02-21T02:08:16;7.40;99.90
3626;DHT22;1827;50.534;8.316;2024-02-21T02:10:42;7.40;99.90
3626;DHT22;1827;50.534;8.316;2024-02-21T02:13:09;7.30;99.90
3626;DHT22;1827;50.534;8.316;2024-02-21T02:15:48;7.30;99.90
3626;DHT22;1827;50.534;8.316;2024-02-21T02:18:19;7.30;99.90
3626;DHT22;1827;50.534;8.316;2024-02-21T02:20:45;7.30;99.90
3626;DHT22;1827;50.534;8.316;2024-02-21T02:23:27;7.30;99.90
3626;DHT22;1827;50.534;8.316;2024-02-21T02:25:53;7.30;99.90
3626;DHT22;1827;50.534;8.316;2024-02-21T02:28:20;7.30;99.90
3626;DHT22;1827;50.534;8.316;2024-02-21T02:30:47;7.30;99.90
3626;DHT22;1827;50.534;8.316;2024-02-21T02:33:13;7.30;99.90
3626;DHT22;1827;50.534;8.316;2024-02-21T02:35:39;7.30;99.90
3626;DHT22;1827;50.534;8.316;2024-02-21T02:38:05;7.30;99.90
3626;DHT22;1827;50.534;8.316;2024-02-21T02:40:33;7.30;99.90
3626;DHT22;1827;50.534;8.316;2024-02-21T02:42:59;7.30;99.90
3626;DHT22;1827;50.534;8.316;2024-02-21T02:45:25;7.30;99.90
3626;DHT22;1827;50.534;8.316;2024-02-21T02:47:54;7.30;99.90
3626;DHT22;1827;50.534;8.316;2024-02-21T02:50:20;7.20;99.90
3626;DHT22;1827;50.534;8.316;2024-02-21T02:52:46;7.20;99.90
3626;DHT22;1827;50.534;8.316;2024-02-21T02:55:12;7.20;99.90
3626;DHT22;1827;50.534;8.316;2024-02-21T02:57:38;7.30;99.90
3626;DHT22;1827;50.534;8.316;2024-02-21T03:00:04;7.30;99.90
3626;DHT22;1827;50.534;8.316;2024-02-21T03:02:32;7.20;99.90
3626;DHT22;1827;50.534;8.316;2024-02-21T03:04:58;7.20;99.90
3626;DHT22;1827;50.534;8.316;2024-02-21T03:07:25;7.20;99.90
3626;DHT22;1827;50.534;8.316;2024-02-21T03:09:51;7.20;99.90
3626;DHT22;1827;50.534;8.316;2024-02-21T03:12:17;7.20;99.90
3626;DHT22;1827;50.534;8.316;2024-02-21T03:14:53;7.20;99.90
3626;DHT22;1827;50.534;8.316;2024-02-21T03:17:19;7.20;99.90
3626;DHT22;1827;50.534;8.316;2024-02-21T03:19:46;7.10;99.90
3626;DHT22;1827;50.534;8.316;2024-02-21T03:22:13;7.10;99.90
3626;DHT22;1827;50.534;8.316;2024-02-21T03:24:38;7.10;99.90
3626;DHT22;1827;50.534;8.316;2024-02-21T03:27:04;7.10;99.90
3626;DHT22;1827;50.534;8.316;2024-02-21T03:29:30;7.10;99.90
3626;DHT22;1827;50.534;8.316;2024-02-21T03:31:56;7.10;99.90
3626;DHT22;1827;50.534;8.316;2024-02-21T03:34:21;7.10;99.90
3626;DHT22;1827;50.534;8.316;2024-02-21T03:36:47;7.00;99.90
3626;DHT22;1827;50.534;8.316;2024-02-21T03:39:15;7.10;99.90
3626;DHT22;1827;50.534;8.316;2024-02-21T03:41:41;7.10;99.90
3626;DHT22;1827;50.534;8.316;2024-02-21T03:44:06;7.10;99.90
3626;DHT22;1827;50.534;8.316;2024-02-21T03:46:32;7.10;99.90
3626;DHT22;1827;50.534;8.316;2024-02-21T03:49:00;7.10;99.90
3626;DHT22;1827;50.534;8.316;2024-02-21T03:51:26;7.10;99.90
3626;DHT22;1827;50.534;8.316;2024-02-21T03:53:52;7.10;99.90
3626;DHT22;1827;50.534;8.316;2024-02-21T03:56:18;7.10;99.90
3626;DHT22;1827;50.534;8.316;2024-02-21T03:58:44;7.10;99.90
3626;DHT22;1827;50.534;8.316;2024-02-21T04:01:09;7.20;99.90
3626;DHT22;1827;50.534;8.316;2024-02-21T04:03:35;7.20;99.90
3626;DHT22;1827;50.534;8.316;2024-02-21T04:06:01;7.20;99.90
3626;DHT22;1827;50.534;8.316;2024-02-21T04:08:27;7.20;99.90
3626;DHT22;1827;50.534;8.316;2024-02-21T04:10:53;7.20;99.90
3626;DHT22;1827;50.534;8.316;2024-02-21T04:13:19;7.10;99.90
3626;DHT22;1827;50.534;8.316;2024-02-21T04:15:45;7.10;99.90
3626;DHT22;1827;50.534;8.316;2024-02-21T04:18:10;7.10;99.90
3626;DHT22;1827;50.534;8.316;2024-02-21T04:20:38;7.00;99.90
3626;DHT22;1827;50.534;8.316;2024-02-21T04:23:04;7.10;99.90
3626;DHT22;1827;50.534;8.316;2024-02-21T04:25:29;7.10;99.90
3626;DHT22;1827;50.534;8.316;2024-02-21T04:27:55;7.10;99.90
3626;DHT22;1827;50.534;8.316;2024-02-21T04:30:21;7.20;99.90
3626;DHT22;1827;50.534;8.316;2024-02-21T04:32:47;7.20;99.90
3626;DHT22;1827;50.534;8.316;2024-02-21T04:35:12;7.20;99.90
3626;DHT22;1827;50.534;8.316;2024-02-21T04:37:38;7.20;99.90
3626;DHT22;1827;50.534;8.316;2024-02-21T04:40:04;7.20;99.90
3626;DHT22;1827;50.534;8.316;2024-02-21T04:42:31;7.20;99.90
3626;DHT22;1827;50.534;8.316;2024-02-21T04:44:56;7.20;99.90
3626;DHT22;1827;50.534;8.316;2024-02-21T04:47:22;7.20;99.90
3626;DHT22;1827;50.534;8.316;2024-02-21T04:49:52;7.20;99.90
3626;DHT22;1827;50.534;8.316;2024-02-21T04:52:18;7.20;99.90
3626;DHT22;1827;50.534;8.316;2024-02-21T04:54:44;7.20;99.90
3626;DHT22;1827;50.534;8.316;2024-02-21T04:57:10;7.20;99.90
3626;DHT22;1827;50.534;8.316;2024-02-21T04:59:36;7.30;99.90
3626;DHT22;1827;50.534;8.316;2024-02-21T05:02:02;7.20;99.90
3626;DHT22;1827;50.534;8.316;2024-02-21T05:04:28;7.20;99.90
3626;DHT22;1827;50.534;8.316;2024-02-21T05:06:54;7.20;99.90
3626;DHT22;1827;50.534;8.316;2024-02-21T05:09:20;7.20;99.90
3626;DHT22;1827;50.534;8.316;2024-02-21T05:11:46;7.30;99.90
3626;DHT22;1827;50.534;8.316;2024-02-21T05:14:13;7.40;99.90
3626;DHT22;1827;50.534;8.316;2024-02-21T05:16:39;7.40;99.90
3626;DHT22;1827;50.534;8.316;2024-02-21T05:19:05;7.40;99.90
3626;DHT22;1827;50.534;8.316;2024-02-21T05:21:31;7.40;99.90
3626;DHT22;1827;50.534;8.316;2024-02-21T05:23:57;7.30;99.90
3626;DHT22;1827;50.534;8.316;2024-02-21T05:26:25;7.30;99.90
3626;DHT22;1827;50.534;8.316;2024-02-21T05:28:53;7.30;99.90
3626;DHT22;1827;50.534;8.316;2024-02-21T05:31:19;7.30;99.90
3626;DHT22;1827;50.534;8.316;2024-02-21T05:33:46;7.30;99.90
3626;DHT22;1827;50.534;8.316;2024-02-21T05:36:12;7.40;99.90
3626;DHT22;1827;50.534;8.316;2024-02-21T05:38:39;7.30;99.90
3626;DHT22;1827;50.534;8.316;2024-02-21T05:41:05;7.30;99.90
3626;DHT22;1827;50.534;8.316;2024-02-21T05:43:31;7.30;99.90
3626;DHT22;1827;50.534;8.316;2024-02-21T05:45:57;7.30;99.90
3626;DHT22;1827;50.534;8.316;2024-02-21T05:48:23;7.30;99.90
3626;DHT22;1827;50.534;8.316;2024-02-21T05:50:49;7.30;99.90
3626;DHT22;1827;50.534;8.316;2024-02-21T05:53:15;7.30;99.90
3626;DHT22;1827;50.534;8.316;2024-02-21T05:55:41;7.30;99.90
3626;DHT22;1827;50.534;8.316;2024-02-21T05:58:07;7.40;99.90
3626;DHT22;1827;50.534;8.316;2024-02-21T06:00:37;7.40;99.90
3626;DHT22;1827;50.534;8.316;2024-02-21T06:03:03;7.30;99.90
3626;DHT22;1827;50.534;8.316;2024-02-21T06:05:29;7.30;99.90
3626;DHT22;1827;50.534;8.316;2024-02-21T06:07:56;7.30;99.90
3626;DHT22;1827;50.534;8.316;2024-02-21T06:10:22;7.30;99.90
3626;DHT22;1827;50.534;8.316;2024-02-21T06:12:47;7.30;99.90
3626;DHT22;1827;50.534;8.316;2024-02-21T06:15:13;7.30;99.90
3626;DHT22;1827;50.534;8.316;2024-02-21T06:17:39;7.30;99.90
3626;DHT22;1827;50.534;8.316;2024-02-21T06:20:05;7.30;99.90
3626;DHT22;1827;50.534;8.316;2024-02-21T06:22:31;7.30;99.90
3626;DHT22;1827;50.534;8.316;2024-02-21T06:24:57;7.20;99.90
3626;DHT22;1827;50.534;8.316;2024-02-21T06:27:22;7.20;99.90
3626;DHT22;1827;50.534;8.316;2024-02-21T06:29:50;7.20;99.90
3626;DHT22;1827;50.534;8.316;2024-02-21T06:32:15;7.30;99.90
3626;DHT22;1827;50.534;8.316;2024-02-21T06:34:41;7.20;99.90
3626;DHT22;1827;50.534;8.316;2024-02-21T06:37:07;7.20;99.90
3626;DHT22;1827;50.534;8.316;2024-02-21T06:39:33;7.20;99.90
3626;DHT22;1827;50.534;8.316;2024-02-21T06:41:59;7.20;99.90
3626;DHT22;1827;50.534;8.316;2024-02-21T06:44:24;7.20;99.90
3626;DHT22;1827;50.534;8.316;2024-02-21T06:46:51;7.20;99.90
3626;DHT22;1827;50.534;8.316;2024-02-21T06:49:16;7.20;99.90
3626;DHT22;1827;50.534;8.316;2024-02-21T06:51:42;7.20;99.90
3626;DHT22;1827;50.534;8.316;2024-02-21T06:54:08;7.30;99.90
3626;DHT22;1827;50.534;8.316;2024-02-21T06:56:36;7.30;99.90
3626;DHT22;1827;50.534;8.316;2024-02-21T06:59:03;7.20;99.90
3626;DHT22;1827;50.534;8.316;2024-02-21T07:01:32;7.30;99.90
3626;DHT22;1827;50.534;8.316;2024-02-21T07:03:58;7.30;99.90
3626;DHT22;1827;50.534;8.316;2024-02-21T07:06:24;7.30;99.90
3626;DHT22;1827;50.534;8.316;2024-02-21T07:08:50;7.30;99.90
3626;DHT22;1827;50.534;8.316;2024-02-21T07:11:16;7.40;99.90
3626;DHT22;1827;50.534;8.316;2024-02-21T07:13:41;7.30;99.90
3626;DHT22;1827;50.534;8.316;2024-02-21T07:16:07;7.30;99.90
3626;DHT22;1827;50.534;8.316;2024-02-21T07:18:35;7.40;99.90
3626;DHT22;1827;50.534;8.316;2024-02-21T07:21:00;7.40;99.90
3626;DHT22;1827;50.534;8.316;2024-02-21T07:23:26;7.40;99.90
3626;DHT22;1827;50.534;8.316;2024-02-21T07:25:52;7.30;99.90
3626;DHT22;1827;50.534;8.316;2024-02-21T07:28:18;7.30;99.90
3626;DHT22;1827;50.534;8.316;2024-02-21T07:30:45;7.30;99.90
3626;DHT22;1827;50.534;8.316;2024-02-21T07:33:11;7.30;99.90
3626;DHT22;1827;50.534;8.316;2024-02-21T07:35:38;7.30;99.90
3626;DHT22;1827;50.534;8.316;2024-02-21T07:38:06;7.20;99.90
3626;DHT22;1827;50.534;8.316;2024-02-21T07:40:32;7.30;99.90
3626;DHT22;1827;50.534;8.316;2024-02-21T07:42:58;7.30;99.90
3626;DHT22;1827;50.534;8.316;2024-02-21T07:45:24;7.30;98.50
3626;DHT22;1827;50.534;8.316;2024-02-21T07:47:50;7.30;95.10
3626;DHT22;1827;50.534;8.316;2024-02-21T07:50:16;7.30;89.60
3626;DHT22;1827;50.534;8.316;2024-02-21T07:52:43;7.30;84.90
3626;DHT22;1827;50.534;8.316;2024-02-21T07:55:08;7.30;79.50
3626;DHT22;1827;50.534;8.316;2024-02-21T07:57:36;7.40;73.80
3626;DHT22;1827;50.534;8.316;2024-02-21T08:00:03;7.40;65.70
3626;DHT22;1827;50.534;8.316;2024-02-21T08:02:40;7.30;63.00
3626;DHT22;1827;50.534;8.316;2024-02-21T08:05:08;7.40;54.20
3626;DHT22;1827;50.534;8.316;2024-02-21T08:07:34;7.40;40.30
3626;DHT22;1827;50.534;8.316;2024-02-21T08:10:00;7.30;43.20
3626;DHT22;1827;50.534;8.316;2024-02-21T08:12:26;7.40;38.00
3626;DHT22;1827;50.534;8.316;2024-02-21T08:14:52;7.50;35.10
3626;DHT22;1827;50.534;8.316;2024-02-21T08:17:18;7.50;19.20
3626;DHT22;1827;50.534;8.316;2024-02-21T08:19:44;7.40;9.60
3626;DHT22;1827;50.534;8.316;2024-02-21T08:22:11;7.40;2.80
3626;DHT22;1827;50.534;8.316;2024-02-21T08:24:37;7.50;2.50
3626;DHT22;1827;50.534;8.316;2024-02-21T08:27:04;7.50;1.00
3626;DHT22;1827;50.534;8.316;2024-02-21T08:29:30;7.60;1.00
3626;DHT22;1827;50.534;8.316;2024-02-21T08:31:56;7.70;1.00
3626;DHT22;1827;50.534;8.316;2024-02-21T08:34:21;7.80;1.00
3626;DHT22;1827;50.534;8.316;2024-02-21T08:36:47;7.90;1.00
3626;DHT22;1827;50.534;8.316;2024-02-21T08:39:13;8.00;1.00
3626;DHT22;1827;50.534;8.316;2024-02-21T08:41:42;8.00;1.00
3626;DHT22;1827;50.534;8.316;2024-02-21T08:44:08;8.10;1.00
3626;DHT22;1827;50.534;8.316;2024-02-21T08:46:34;8.10;1.00
3626;DHT22;1827;50.534;8.316;2024-02-21T08:49:00;8.00;1.00
3626;DHT22;1827;50.534;8.316;2024-02-21T08:51:27;7.90;1.00
3626;DHT22;1827;50.534;8.316;2024-02-21T08:53:53;8.00;1.00
3626;DHT22;1827;50.534;8.316;2024-02-21T08:56:20;8.00;1.00
3626;DHT22;1827;50.534;8.316;2024-02-21T08:58:46;8.20;1.00
3626;DHT22;1827;50.534;8.316;2024-02-21T09:01:12;8.20;1.00
3626;DHT22;1827;50.534;8.316;2024-02-21T09:03:39;8.30;1.00
3626;DHT22;1827;50.534;8.316;2024-02-21T09:06:09;8.20;1.00
3626;DHT22;1827;50.534;8.316;2024-02-21T09:08:36;8.20;1.00
3626;DHT22;1827;50.534;8.316;2024-02-21T09:11:02;8.30;1.00
3626;DHT22;1827;50.534;8.316;2024-02-21T09:13:28;8.50;1.00
3626;DHT22;1827;50.534;8.316;2024-02-21T09:15:54;8.40;1.00
3626;DHT22;1827;50.534;8.316;2024-02-21T09:18:20;8.40;1.00
3626;DHT22;1827;50.534;8.316;2024-02-21T09:20:45;8.50;1.00
3626;DHT22;1827;50.534;8.316;2024-02-21T09:23:13;8.50;1.00
3626;DHT22;1827;50.534;8.316;2024-02-21T09:25:39;8.50;1.00
3626;DHT22;1827;50.534;8.316;2024-02-21T09:28:06;8.50;1.00
3626;DHT22;1827;50.534;8.316;2024-02-21T09:30:34;8.50;1.00
3626;DHT22;1827;50.534;8.316;2024-02-21T09:32:59;8.50;1.00
3626;DHT22;1827;50.534;8.316;2024-02-21T09:35:27;8.50;1.00
3626;DHT22;1827;50.534;8.316;2024-02-21T09:37:53;8.40;1.00
3626;DHT22;1827;50.534;8.316;2024-02-21T09:40:20;8.30;1.00
3626;DHT22;1827;50.534;8.316;2024-02-21T09:42:47;8.40;1.00
3626;DHT22;1827;50.534;8.316;2024-02-21T09:45:24;8.50;1.00
3626;DHT22;1827;50.534;8.316;2024-02-21T09:50:44;8.60;1.00
3626;DHT22;1827;50.534;8.316;2024-02-21T09:53:12;8.60;1.00
3626;DHT22;1827;50.534;8.316;2024-02-21T09:55:40;8.60;1.00
3626;DHT22;1827;50.534;8.316;2024-02-21T09:58:08;8.50;1.00
3626;DHT22;1827;50.534;8.316;2024-02-21T10:00:36;8.70;1.00
3626;DHT22;1827;50.534;8.316;2024-02-21T10:03:02;8.90;1.00
3626;DHT22;1827;50.534;8.316;2024-02-21T10:05:37;9.00;1.00
3626;DHT22;1827;50.534;8.316;2024-02-21T10:08:03;9.00;1.00
3626;DHT22;1827;50.534;8.316;2024-02-21T10:10:40;9.20;1.00
3626;DHT22;1827;50.534;8.316;2024-02-21T10:13:05;9.30;1.00
3626;DHT22;1827;50.534;8.316;2024-02-21T10:15:31;9.30;1.00
3626;DHT22;1827;50.534;8.316;2024-02-21T10:18:01;9.30;1.00
3626;DHT22;1827;50.534;8.316;2024-02-21T10:20:29;9.00;1.00
3626;DHT22;1827;50.534;8.316;2024-02-21T10:23:05;9.00;1.00
3626;DHT22;1827;50.534;8.316;2024-02-21T10:25:35;9.00;1.00
3626;DHT22;1827;50.534;8.316;2024-02-21T10:28:04;8.90;1.00
3626;DHT22;1827;50.534;8.316;2024-02-21T10:30:30;9.00;1.00
3626;DHT22;1827;50.534;8.316;2024-02-21T10:32:57;9.20;1.00
3626;DHT22;1827;50.534;8.316;2024-02-21T10:35:28;9.20;1.00
3626;DHT22;1827;50.534;8.316;2024-02-21T10:37:58;9.30;1.00
3626;DHT22;1827;50.534;8.316;2024-02-21T10:40:29;9.30;1.00
3626;DHT22;1827;50.534;8.316;2024-02-21T10:42:59;9.30;1.00
3626;DHT22;1827;50.534;8.316;2024-02-21T10:45:29;9.40;1.00
3626;DHT22;1827;50.534;8.316;2024-02-21T10:50:32;9.90;1.00
3626;DHT22;1827;50.534;8.316;2024-02-21T10:53:14;10.20;1.00
3626;DHT22;1827;50.534;8.316;2024-02-21T10:55:50;10.20;1.00
3626;DHT22;1827;50.534;8.316;2024-02-21T10:58:18;10.30;1.00
3626;DHT22;1827;50.534;8.316;2024-02-21T11:00:46;10.40;1.00
3626;DHT22;1827;50.534;8.316;2024-02-21T11:03:12;10.30;1.00
3626;DHT22;1827;50.534;8.316;2024-02-21T11:05:40;10.30;1.00
3626;DHT22;1827;50.534;8.316;2024-02-21T11:08:07;10.10;1.00
3626;DHT22;1827;50.534;8.316;2024-02-21T11:10:36;9.80;1.00
3626;DHT22;1827;50.534;8.316;2024-02-21T11:13:09;9.80;1.00
3626;DHT22;1827;50.534;8.316;2024-02-21T11:15:34;10.00;1.00
3626;DHT22;1827;50.534;8.316;2024-02-21T11:18:00;10.20;1.00
3626;DHT22;1827;50.534;8.316;2024-02-21T11:20:37;10.30;1.00
3626;DHT22;1827;50.534;8.316;2024-02-21T11:23:03;10.60;1.00
3626;DHT22;1827;50.534;8.316;2024-02-21T11:25:30;10.20;1.00
3626;DHT22;1827;50.534;8.316;2024-02-21T11:28:02;10.10;1.00
3626;DHT22;1827;50.534;8.316;2024-02-21T11:30:35;10.20;1.00
3626;DHT22;1827;50.534;8.316;2024-02-21T11:33:06;10.20;1.00
3626;DHT22;1827;50.534;8.316;2024-02-21T11:35:36;10.30;1.00
3626;DHT22;1827;50.534;8.316;2024-02-21T11:38:13;10.50;1.00
3626;DHT22;1827;50.534;8.316;2024-02-21T11:40:46;10.70;1.00
3626;DHT22;1827;50.534;8.316;2024-02-21T11:43:12;10.50;1.00
3626;DHT22;1827;50.534;8.316;2024-02-21T11:45:38;10.70;1.00
3626;DHT22;1827;50.534;8.316;2024-02-21T11:48:08;10.50;1.00
3626;DHT22;1827;50.534;8.316;2024-02-21T11:50:37;10.40;1.00
3626;DHT22;1827;50.534;8.316;2024-02-21T11:53:05;10.40;1.00
3626;DHT22;1827;50.534;8.316;2024-02-21T11:55:31;10.60;1.00
3626;DHT22;1827;50.534;8.316;2024-02-21T11:57:57;10.30;1.00
3626;DHT22;1827;50.534;8.316;2024-02-21T12:00:25;10.50;1.00
3626;DHT22;1827;50.534;8.316;2024-02-21T12:02:51;10.50;1.00
3626;DHT22;1827;50.534;8.316;2024-02-21T12:05:19;10.30;1.00
3626;DHT22;1827;50.534;8.316;2024-02-21T12:07:45;10.40;1.00
3626;DHT22;1827;50.534;8.316;2024-02-21T12:10:12;10.40;1.00
3626;DHT22;1827;50.534;8.316;2024-02-21T12:12:39;10.50;1.00
3626;DHT22;1827;50.534;8.316;2024-02-21T12:15:06;10.50;1.00
3626;DHT22;1827;50.534;8.316;2024-02-21T12:17:36;10.60;1.00
3626;DHT22;1827;50.534;8.316;2024-02-21T12:20:02;10.60;1.00
3626;DHT22;1827;50.534;8.316;2024-02-21T12:22:31;10.60;1.00
3626;DHT22;1827;50.534;8.316;2024-02-21T12:25:03;10.70;1.00
3626;DHT22;1827;50.534;8.316;2024-02-21T12:27:29;10.80;1.00
3626;DHT22;1827;50.534;8.316;2024-02-21T12:29:55;10.70;1.00
3626;DHT22;1827;50.534;8.316;2024-02-21T12:32:21;10.80;1.00
3626;DHT22;1827;50.534;8.316;2024-02-21T12:34:47;10.90;1.00
3626;DHT22;1827;50.534;8.316;2024-02-21T12:37:14;11.10;1.00
3626;DHT22;1827;50.534;8.316;2024-02-21T12:39:41;11.10;1.00
3626;DHT22;1827;50.534;8.316;2024-02-21T12:42:07;11.30;1.00
3626;DHT22;1827;50.534;8.316;2024-02-21T12:44:35;11.10;1.00
3626;DHT22;1827;50.534;8.316;2024-02-21T12:47:01;10.90;1.00
3626;DHT22;1827;50.534;8.316;2024-02-21T12:49:27;11.10;1.00
3626;DHT22;1827;50.534;8.316;2024-02-21T12:51:55;11.10;1.00
3626;DHT22;1827;50.534;8.316;2024-02-21T12:54:21;10.90;1.00
3626;DHT22;1827;50.534;8.316;2024-02-21T12:56:47;10.90;1.00
3626;DHT22;1827;50.534;8.316;2024-02-21T12:59:13;10.80;1.00
3626;DHT22;1827;50.534;8.316;2024-02-21T13:01:40;10.90;1.00
3626;DHT22;1827;50.534;8.316;2024-02-21T13:04:05;10.90;1.00
3626;DHT22;1827;50.534;8.316;2024-02-21T13:06:31;11.00;1.00
3626;DHT22;1827;50.534;8.316;2024-02-21T13:08:57;11.00;1.00
3626;DHT22;1827;50.534;8.316;2024-02-21T13:11:24;11.00;1.00
3626;DHT22;1827;50.534;8.316;2024-02-21T13:13:52;11.10;1.00
3626;DHT22;1827;50.534;8.316;2024-02-21T13:16:18;10.90;1.00
3626;DHT22;1827;50.534;8.316;2024-02-21T13:18:44;10.90;1.00
3626;DHT22;1827;50.534;8.316;2024-02-21T13:21:12;11.00;1.00
3626;DHT22;1827;50.534;8.316;2024-02-21T13:23:39;10.90;1.00
3626;DHT22;1827;50.534;8.316;2024-02-21T13:26:07;10.90;1.00
3626;DHT22;1827;50.534;8.316;2024-02-21T13:28:32;11.00;1.00
3626;DHT22;1827;50.534;8.316;2024-02-21T13:30:58;10.90;1.00
3626;DHT22;1827;50.534;8.316;2024-02-21T13:33:24;11.10;1.00
3626;DHT22;1827;50.534;8.316;2024-02-21T13:35:50;11.10;1.00
3626;DHT22;1827;50.534;8.316;2024-02-21T13:38:17;11.20;1.00
3626;DHT22;1827;50.534;8.316;2024-02-21T13:40:44;11.20;1.00
3626;DHT22;1827;50.534;8.316;2024-02-21T13:43:11;11.30;1.00
3626;DHT22;1827;50.534;8.316;2024-02-21T13:45:38;11.50;1.00
3626;DHT22;1827;50.534;8.316;2024-02-21T13:48:04;11.40;1.00
3626;DHT22;1827;50.534;8.316;2024-02-21T13:50:32;11.40;1.00
3626;DHT22;1827;50.534;8.316;2024-02-21T13:52:58;11.40;1.00
3626;DHT22;1827;50.534;8.316;2024-02-21T13:55:24;11.10;1.00
3626;DHT22;1827;50.534;8.316;2024-02-21T13:57:53;11.20;1.00
3626;DHT22;1827;50.534;8.316;2024-02-21T14:00:19;11.40;1.00
3626;DHT22;1827;50.534;8.316;2024-02-21T14:02:46;11.40;1.00
3626;DHT22;1827;50.534;8.316;2024-02-21T14:05:12;11.30;1.00
3626;DHT22;1827;50.534;8.316;2024-02-21T14:07:38;11.10;1.00
3626;DHT22;1827;50.534;8.316;2024-02-21T14:10:05;11.10;1.00
3626;DHT22;1827;50.534;8.316;2024-02-21T14:12:31;10.90;1.00
3626;DHT22;1827;50.534;8.316;2024-02-21T14:14:57;10.80;1.00
3626;DHT22;1827;50.534;8.316;2024-02-21T14:17:24;10.80;1.00
3626;DHT22;1827;50.534;8.316;2024-02-21T14:19:51;10.80;1.00
3626;DHT22;1827;50.534;8.316;2024-02-21T14:22:17;10.70;1.00
3626;DHT22;1827;50.534;8.316;2024-02-21T14:24:43;10.50;1.00
3626;DHT22;1827;50.534;8.316;2024-02-21T14:27:11;10.50;1.00
3626;DHT22;1827;50.534;8.316;2024-02-21T14:29:38;10.50;1.00
3626;DHT22;1827;50.534;8.316;2024-02-21T14:32:04;10.40;1.00
3626;DHT22;1827;50.534;8.316;2024-02-21T14:34:31;10.50;1.00
3626;DHT22;1827;50.534;8.316;2024-02-21T14:36:57;10.60;1.00
3626;DHT22;1827;50.534;8.316;2024-02-21T14:39:23;10.60;1.00
3626;DHT22;1827;50.534;8.316;2024-02-21T14:41:50;10.70;1.00
3626;DHT22;1827;50.534;8.316;2024-02-21T14:44:16;10.80;1.00
3626;DHT22;1827;50.534;8.316;2024-02-21T14:46:42;10.60;1.00
3626;DHT22;1827;50.534;8.316;2024-02-21T14:49:08;10.60;1.00
3626;DHT22;1827;50.534;8.316;2024-02-21T14:51:34;10.50;1.00
3626;DHT22;1827;50.534;8.316;2024-02-21T14:54:01;10.50;1.00
3626;DHT22;1827;50.534;8.316;2024-02-21T14:56:27;10.50;1.00
3626;DHT22;1827;50.534;8.316;2024-02-21T14:58:54;10.50;1.00
3626;DHT22;1827;50.534;8.316;2024-02-21T15:01:20;10.50;1.00
3626;DHT22;1827;50.534;8.316;2024-02-21T15:03:46;10.40;1.00
3626;DHT22;1827;50.534;8.316;2024-02-21T15:06:12;10.30;1.00
3626;DHT22;1827;50.534;8.316;2024-02-21T15:08:38;10.30;1.00
3626;DHT22;1827;50.534;8.316;2024-02-21T15:11:04;10.40;1.00
3626;DHT22;1827;50.534;8.316;2024-02-21T15:13:31;10.50;1.00
3626;DHT22;1827;50.534;8.316;2024-02-21T15:15:57;10.40;1.00
3626;DHT22;1827;50.534;8.316;2024-02-21T15:18:23;10.40;1.00
3626;DHT22;1827;50.534;8.316;2024-02-21T15:20:49;10.40;1.00
3626;DHT22;1827;50.534;8.316;2024-02-21T15:23:15;10.30;1.00
3626;DHT22;1827;50.534;8.316;2024-02-21T15:25:44;10.20;1.00
3626;DHT22;1827;50.534;8.316;2024-02-21T15:28:10;10.30;1.00
3626;DHT22;1827;50.534;8.316;2024-02-21T15:30:37;10.20;1.00
3626;DHT22;1827;50.534;8.316;2024-02-21T15:33:03;10.20;1.00
3626;DHT22;1827;50.534;8.316;2024-02-21T15:35:30;10.10;1.00
3626;DHT22;1827;50.534;8.316;2024-02-21T15:37:57;10.10;1.00
3626;DHT22;1827;50.534;8.316;2024-02-21T15:40:23;10.10;1.00
3626;DHT22;1827;50.534;8.316;2024-02-21T15:42:49;10.10;1.00
3626;DHT22;1827;50.534;8.316;2024-02-21T15:45:15;10.10;1.00
3626;DHT22;1827;50.534;8.316;2024-02-21T15:47:41;10.00;1.00
3626;DHT22;1827;50.534;8.316;2024-02-21T15:50:08;10.10;1.00
3626;DHT22;1827;50.534;8.316;2024-02-21T15:52:36;10.00;1.00
3626;DHT22;1827;50.534;8.316;2024-02-21T15:55:07;10.10;1.00
3626;DHT22;1827;50.534;8.316;2024-02-21T15:57:36;10.00;1.00
3626;DHT22;1827;50.534;8.316;2024-02-21T16:00:02;10.00;1.00
3626;DHT22;1827;50.534;8.316;2024-02-21T16:02:35;10.00;1.00
3626;DHT22;1827;50.534;8.316;2024-02-21T16:05:01;9.80;1.00
3626;DHT22;1827;50.534;8.316;2024-02-21T16:07:28;9.80;1.00
3626;DHT22;1827;50.534;8.316;2024-02-21T16:09:54;9.70;1.00
3626;DHT22;1827;50.534;8.316;2024-02-21T16:12:20;9.70;1.00
3626;DHT22;1827;50.534;8.316;2024-02-21T16:14:49;9.80;1.00
3626;DHT22;1827;50.534;8.316;2024-02-21T16:17:14;9.70;1.00
3626;DHT22;1827;50.534;8.316;2024-02-21T16:19:40;9.60;1.00
3626;DHT22;1827;50.534;8.316;2024-02-21T16:22:06;9.60;1.00
3626;DHT22;1827;50.534;8.316;2024-02-21T16:24:32;9.60;1.00